This is the latest recevied weather packets stored in our database for station/object KF0JHJ. If no packets are shown the sender has not sent any weather packets the latest 1 day(s).
| Time | Temp. | Humidity | Pressure | Rain* | Wind** | Luminosity | Snow |
|---|---|---|---|---|---|---|---|
| 1778017670 | 11.11° C | 41% | 1008.4 hPa | - | 0 m/s | 179 W/m² | - |
| 1778017367 | 10.56° C | 41% | 1008.5 hPa | - | 0 m/s | 234 W/m² | - |
| 1778017064 | 10° C | 43% | 1008.6 hPa | - | 0.89 m/s, 0° | 144 W/m² | - |
| 1778016761 | 10° C | 42% | 1008.7 hPa | - | 0 m/s | 204 W/m² | - |
| 1778016457 | 10° C | 42% | 1008.7 hPa | - | 0.89 m/s, 38° | 139 W/m² | - |
| 1778016155 | 10° C | 43% | 1008.8 hPa | - | 0.89 m/s, 255° | 130 W/m² | - |
| 1778015852 | 10° C | 43% | 1008.8 hPa | - | 0.45 m/s, 23° | 181 W/m² | - |
| 1778015549 | 10° C | 43% | 1008.7 hPa | - | 1.34 m/s, 18° | 210 W/m² | - |
| 1778015245 | 10° C | 42% | 1008.7 hPa | - | 0 m/s | 175 W/m² | - |
| 1778014942 | 10° C | 45% | 1008.7 hPa | - | 0 m/s | 289 W/m² | - |
| 1778014640 | 10° C | 44% | 1008.8 hPa | - | 0.45 m/s, 29° | 166 W/m² | - |
| 1778014338 | 10° C | 44% | 1008.9 hPa | - | 1.34 m/s, 0° | 165 W/m² | - |
| 1778014034 | 10.56° C | 44% | 1008.9 hPa | - | 0 m/s | 131 W/m² | - |
| 1778013732 | 10.56° C | 43% | 1009 hPa | - | 1.79 m/s, 341° | 114 W/m² | - |
| 1778013429 | 11.11° C | 41% | 1008.7 hPa | - | 0.45 m/s, 12° | 169 W/m² | - |
| 1778013126 | 10.56° C | 41% | 1008.7 hPa | - | 0 m/s | 254 W/m² | - |
| 1778012821 | 10.56° C | 42% | 1008.8 hPa | - | 2.24 m/s, 331° | 309 W/m² | - |
| 1778012518 | 10.56° C | 43% | 1008.7 hPa | - | 1.79 m/s, 23° | 193 W/m² | - |
| 1778012214 | 10° C | 43% | 1008.9 hPa | - | 0.89 m/s, 287° | 192 W/m² | - |
| 1778011912 | 10.56° C | 43% | 1008.8 hPa | - | 1.34 m/s, 0° | 221 W/m² | - |
| 1778011610 | 10° C | 42% | 1008.9 hPa | - | 1.79 m/s, 336° | 225 W/m² | - |
| 1778011307 | 10.56° C | 41% | 1009 hPa | - | 0 m/s | 175 W/m² | - |
| 1778011002 | 10.56° C | 43% | 1008.9 hPa | - | 0.45 m/s, 0° | 799 W/m² | - |
| 1778010700 | 10° C | 41% | 1008.8 hPa | - | 1.79 m/s, 338° | 287 W/m² | - |
| 1778010397 | 10° C | 42% | 1009.1 hPa | - | 1.34 m/s, 336° | 299 W/m² | - |
* Rain since midnight (hover to see other rain measurements)
** Current wind speed in m/s (hover to see current wind gust speed)